AirNav   Air Wisconsin pilot careers
 
 687 users online  

1J9 Fort Walton Beach Airport
Navarre, Florida, USA

GOING TO NAVARRE?


FAA INFORMATION EFFECTIVE 07 DECEMBER 2017

Location

FAA Identifier: 1J9
Lat/Long: 30-24-22.7000N / 086-49-45.1000W
30-24.378333N / 086-49.751667W
30.4063056 / -86.8291944
(estimated)
Elevation: 22 ft. / 6.7 m (surveyed)
Variation: 01E (1985)
From city: 2 miles E of NAVARRE, FL
Time zone: UTC -6 (UTC -5 during Daylight Saving Time)
Zip code: 32566

Airport Operations

Airport use: Open to the public
Activation date: 05/1969
Control tower: no
ARTCC: JACKSONVILLE CENTER
FSS: GAINESVILLE FLIGHT SERVICE STATION
NOTAMs facility: GNV (NOTAM-D service available)
Attendance: 1000-DUSK
Wind indicator: yes
Segmented circle: no

Airport Communications

CTAF/UNICOM: 122.7
WX ASOS at DTS (19 nm E): 133.925 (850-654-7128)
WX ASOS at PNS (19 nm W): PHONE 850-436-4799

Nearby radio navigation aids

VOR radial/distance  VOR name  Freq  Var
CEWr194/26.4CRESTVIEW VORTAC115.9003E
NUNr098/(26.5)SAUFLEY VOR108.8001E

 
NDB name  Hdg/Dist  Freq  Var  ID
PICKENS098/18.232602WPKZ .--. -.- --..

Airport Services

Airframe service: NONE
Powerplant service: NONE
Bottled oxygen: NONE
Bulk oxygen: NONE

Runway Information

Runway 18/36

Dimensions: 2100 x 65 ft. / 640 x 20 m
Surface: turf, in poor condition
RWY 18/36 BARE SPOTS SOFT & SANDY SOUTH OF RWYS MID POINT.
Gradient: N
Operational restrictions: ALL TKOFS RY 18; ALL LNDGS RY 36.
RUNWAY 18  RUNWAY 36
Latitude: 30-24.551792N30-24.205292N
Longitude: 086-49.750332W086-49.754368W
Elevation: 22.0 ft.2.0 ft.
Gradient: 1.0% UP
Traffic pattern: leftleft
Runway heading: 180 magnetic, 181 true000 magnetic, 001 true
Obstructions: 17 ft. bldg, 84 ft. from runway, 12 ft. left of centerline, 5:1 slope to clear
RY 18 20:1 APPROACH TO THE DSPLCD THLD.
5 ft. trees, 150 ft. from runway, 40 ft. right of centerline, 30:1 slope to clear
BRUSH IN PRIMARY SFC & TRANSITION ZONES FY 36 +/- 100 FT FROM CNTRLN. ACFT PARKED 80 FT FROM CNTRLN.

Airport Ownership and Management from official FAA records

Ownership: Privately-owned
Owner: BOOMER AVIATION INC.
P.O. BOX 1075
FORT WALTON, FL 32549
Phone 850-244-1313
CONTACT PERSON: STEPHEN WILLIAMS, 850-244-1313
Manager: MARK WILLIAMS
P.O. BOX 1075, P.O. BOX
FT WALTON BEACH, FL 32549
Phone (850) 259-6275

Airport Operational Statistics

Aircraft based on the field: 8
Single engine airplanes: 8
    
Aircraft operations: avg 22/day *
91% local general aviation
9% transient general aviation
* for 12-month period ending 10 March 2016

Additional Remarks

RY 18/36 SLOPES TO 3 FT ELEVATION AT SOUTH END.
BANNER TOWING.
RY 18/36 MARKED WITH WHITE CONES.
ARPT CLSD TO HELICOPTERS MORE THAN 2500 LBS.

Instrument Procedures

There are no published instrument procedures at 1J9.

Some nearby airports with instrument procedures:

KHRT - Hurlburt Field Airport (7 nm E)
2R4 - Peter Prince Field Airport (16 nm NW)
KVPS - Eglin Air Force Base/Destin-Fort Walton Beach Airport (16 nm E)
KDTS - Destin Executive Airport (19 nm E)
KPNS - Pensacola International Airport (19 nm W)
KNDZ - Whiting Field Naval Air Station South (20 nm NW)
 
Loc | Ops | Rwys | IFR | FBO | Links
Com | Nav | Svcs | Stats | Notes


 
Area around 1J9 (Fort Walton Beach Airport)
 
Road maps at: MapQuest Bing Google
 
Aerial photo
WARNING: Photo may not be current or correct
Aerial photo of 1J9 (Fort Walton Beach Airport)
Photo by Scott Jackson - PhotosFlorida.com
Photo taken 04-Oct-2007
looking north

Do you have a better or more recent aerial photo of Fort Walton Beach Airport that you would like to share? If so, please send us your photo.

 
Sectional chart

 
Airport distance calculator
Flying to Fort Walton Beach Airport? Find the distance to fly.

From to 1J9

Sunrise and sunset
Times for 16-Dec-2017
 Local
(UTC-6)
 Zulu
(UTC)
Morning civil twilight06:1212:12
Sunrise06:3812:38
Sunset16:4822:48
Evening civil twilight17:1423:14

Current date and time
Zulu (UTC)  17-Dec-2017 02:09:04
Local (UTC-6)  16-Dec-2017 20:09:04
 
METAR
KHRT 
8nm E 
170156Z AUTO 02004KT 10SM CLR 08/06 A3023 RMK AO2 SLP239 T00760056 $
2R4 
16nm NW 
SuperAWOS
170155Z AUTO 00000KT 08/05 A3023
KVPS 
17nm E 
170155Z 00000KT 10SM BKN220 09/04 A3025 RMK AO2A SLP251 T00930043 $
KDTS 
19nm E 
170153Z 00000KT 10SM CLR 11/06 A3025 RMK AO2 SLP243 T01110056
KPNS 
19nm W 
170153Z 07004KT 10SM OVC042 13/04 A3024 RMK AO2 SLP243 T01330039
TAF
KHRT 
8nm E 
161700Z 1617/1723 06009KT 9999 BKN100 QNH3020INS BECMG 1705/1706 10006KT 9999 FEW050 BKN100 QNH3018INS BECMG 1714/1715 13009KT 9999 BKN020 OVC080 QNH3012INS TX17/1716Z TN08/1712Z
KVPS 
17nm E 
161800Z 1618/1724 06006KT 9999 SCT100 BKN250 QNH3022INS BECMG 1708/1709 14010G15KT 9999 FEW030 BKN100 OVC250 QNH3015INS BECMG 1723/1724 12009KT 9999 BKN020 OVC070 QNH3016INS TX14/1619Z TN02/1712Z FCST BY USAF WX MET TECH
KPNS 
19nm W 
161739Z 1618/1718 06005KT P6SM SCT110 BKN250 FM170500 11009KT P6SM OVC050 FM171500 14012KT P6SM OVC020
NOTAMs
Click for the latest NOTAMs
NOTAMs are issued by the DoD/FAA and will open in a separate window not controlled by AirNav.

 

 
 

Would you like to see your business listed on this page?

 If your business provides an interesting product or service to pilots, flight crews, aircraft, or users of the Fort Walton Beach Airport, you should consider listing it here.  To start the listing process, click on the button below
 
Add a business
 

Other Pages about Fort Walton Beach Airport

Update a link
 
Copyright © AirNav, LLC. All rights reserved. Privacy Policy  Contact